Portada
METAR-TAF:

METAR-TAF

Aeroports :

Aeroport de Jiddah Rei Abdulaziz

Jiddah, Aràbia Saudita

latitud: 21-42N, longitud: 039-11E, altitud: 15 m

Observació

L'informe es va fer fa 1 hora i 1 minuts, a les 14:00 UTC
Vent 18 kt del Nord/Nord-Oest
Temperatura 31°C
Humitat 49%
Pressió 1008 hPa
Visibilitat 10 km o més
sense núvols per sota de 1500 mi sense presència de cumulonimbus.

METAR: OEJN 251400Z 34018KT CAVOK 31/19 Q1008 NOSIG

Hora: 18:01 (15:01 UTC)

Pronòstic

L'informe es va fer fa 4 hores i 1 minuts, a les 11:00 UTC
Pronòstic vàlid del 25 a les 12 UTC al 26 a les 18 UTC
Vent 18 kt del Nord/Nord-Oest
Visibilitat: 7000 m
Evolucionant progressivament
l' 25 a les 18 UTC al 25 a les 20 UTC
Vent 6 kt del Nord/Nord-Est

TAF: OEJN 251100Z 2512/2618 33018KT 7000 NSC BECMG 2518/2520 03006KT

Observacions i pronòstics meteorològics de més de 4000 aeroports (METAR i TAF).

Les estacions disponibles són els punts grocs i vermells al mapa.

Posi el ratolí al punt desitjat per veure el nom de l'estació.

Feu clic per veure les observacions i els pronòstics meteorològics.

Per canviar el mapa: feu clic els botons verds amb una creu de color negre per apropar; al botó verd amb un guió per allunyar la imatge; o en les fletxes verdes per a mapes adjacents.


METAR-TAF: